Terminal Aerodrome Forecast
Issued by NWS Jackson, KY

Home | Current Version | Previous Version | Text Only | Print | Product List | Glossary On
Versions: 1 2 3 4 5 6 7 8 9 10 11 12 13 14 15 16 17 18 19 20 21 22 23 24 25
449
FTUS43 KJKL 071849 AAA
TAFLOZ
TAF AMD
KLOZ 071849Z 0719/0818 VRB04KT P6SM SCT100
     FM080800 VRB03KT P6SM OVC100
     FM081500 29007KT P6SM SCT150=

USA.gov is the U.S. government's official web portal to all federal, state and local government web resources and services.